Terminal Aerodrome Forecast
Issued by NWS

Home | Current Version | Previous Version | Text Only | Print | Product List | Glossary Off
Versions: 1 2 3 4 5 6 7 8 9 10 11 12 13 14 15 16 17 18 19 20 21 22 23 24 25 26 27 28 29 30 31 32 33

000
FTUS43 KPAH 281100
TAFOWB
TAF
KOWB 281120Z 2812/2912 30005KT P6SM SKC
     FM281500 34010G15KT P6SM BKN035
     FM282300 34010KT P6SM SCT040
     FM290100 35003KT P6SM SKC=

USA.gov is the U.S. government's official web portal to all federal, state and local government web resources and services.